sensor_id;sensor_type;location;lat;lon;timestamp;P1;durP1;ratioP1;P2;durP2;ratioP2
56537;SDS011;42435;53.292;6.000;2024-03-06T00:02:12;18.30;;;11.00;;
56537;SDS011;42435;53.292;6.000;2024-03-06T00:04:40;20.00;;;9.93;;
56537;SDS011;42435;53.292;6.000;2024-03-06T00:07:14;22.05;;;10.82;;
56537;SDS011;42435;53.292;6.000;2024-03-06T00:09:44;25.67;;;12.15;;
56537;SDS011;42435;53.292;6.000;2024-03-06T00:12:13;19.95;;;11.43;;
56537;SDS011;42435;53.292;6.000;2024-03-06T00:14:42;21.35;;;11.88;;
56537;SDS011;42435;53.292;6.000;2024-03-06T00:17:14;21.58;;;11.35;;
56537;SDS011;42435;53.292;6.000;2024-03-06T00:19:42;18.30;;;10.75;;
56537;SDS011;42435;53.292;6.000;2024-03-06T00:22:09;20.38;;;11.05;;
56537;SDS011;42435;53.292;6.000;2024-03-06T00:24:35;22.08;;;11.98;;
56537;SDS011;42435;53.292;6.000;2024-03-06T00:27:03;21.75;;;11.05;;
56537;SDS011;42435;53.292;6.000;2024-03-06T00:29:40;21.75;;;10.85;;
56537;SDS011;42435;53.292;6.000;2024-03-06T00:32:07;24.65;;;12.18;;
56537;SDS011;42435;53.292;6.000;2024-03-06T00:34:39;22.98;;;11.48;;
56537;SDS011;42435;53.292;6.000;2024-03-06T00:37:14;21.63;;;11.20;;
56537;SDS011;42435;53.292;6.000;2024-03-06T00:39:47;19.53;;;11.70;;
56537;SDS011;42435;53.292;6.000;2024-03-06T00:42:32;20.42;;;11.23;;
56537;SDS011;42435;53.292;6.000;2024-03-06T00:45:01;20.65;;;10.60;;
56537;SDS011;42435;53.292;6.000;2024-03-06T00:47:32;17.00;;;10.25;;
56537;SDS011;42435;53.292;6.000;2024-03-06T00:50:00;19.38;;;11.52;;
56537;SDS011;42435;53.292;6.000;2024-03-06T00:52:28;22.30;;;12.63;;
56537;SDS011;42435;53.292;6.000;2024-03-06T00:54:57;19.63;;;9.40;;
56537;SDS011;42435;53.292;6.000;2024-03-06T00:57:28;21.45;;;12.00;;
56537;SDS011;42435;53.292;6.000;2024-03-06T00:59:54;23.70;;;12.15;;
56537;SDS011;42435;53.292;6.000;2024-03-06T01:02:25;27.38;;;13.85;;
56537;SDS011;42435;53.292;6.000;2024-03-06T01:04:53;22.55;;;12.50;;
56537;SDS011;42435;53.292;6.000;2024-03-06T01:07:22;23.38;;;12.55;;
56537;SDS011;42435;53.292;6.000;2024-03-06T01:09:48;23.58;;;12.77;;
56537;SDS011;42435;53.292;6.000;2024-03-06T01:12:17;26.90;;;13.13;;
56537;SDS011;42435;53.292;6.000;2024-03-06T01:14:46;23.83;;;12.50;;
56537;SDS011;42435;53.292;6.000;2024-03-06T01:17:15;20.05;;;11.27;;
56537;SDS011;42435;53.292;6.000;2024-03-06T01:19:52;22.63;;;13.02;;
56537;SDS011;42435;53.292;6.000;2024-03-06T01:22:35;24.08;;;12.10;;
56537;SDS011;42435;53.292;6.000;2024-03-06T01:25:07;28.00;;;13.23;;
56537;SDS011;42435;53.292;6.000;2024-03-06T01:27:33;22.80;;;12.50;;
56537;SDS011;42435;53.292;6.000;2024-03-06T01:29:59;20.73;;;11.20;;
56537;SDS011;42435;53.292;6.000;2024-03-06T01:32:29;25.85;;;13.75;;
56537;SDS011;42435;53.292;6.000;2024-03-06T01:35:02;23.88;;;13.50;;
56537;SDS011;42435;53.292;6.000;2024-03-06T01:37:35;21.63;;;12.35;;
56537;SDS011;42435;53.292;6.000;2024-03-06T01:42:40;21.65;;;11.23;;
56537;SDS011;42435;53.292;6.000;2024-03-06T01:45:14;24.65;;;12.77;;
56537;SDS011;42435;53.292;6.000;2024-03-06T01:47:40;23.13;;;13.38;;
56537;SDS011;42435;53.292;6.000;2024-03-06T01:50:18;24.35;;;13.57;;
56537;SDS011;42435;53.292;6.000;2024-03-06T01:52:44;25.00;;;12.85;;
56537;SDS011;42435;53.292;6.000;2024-03-06T01:55:12;23.50;;;12.63;;
56537;SDS011;42435;53.292;6.000;2024-03-06T01:57:41;28.38;;;13.75;;
56537;SDS011;42435;53.292;6.000;2024-03-06T02:00:10;21.65;;;12.38;;
56537;SDS011;42435;53.292;6.000;2024-03-06T02:05:29;23.77;;;12.52;;
56537;SDS011;42435;53.292;6.000;2024-03-06T02:08:15;21.83;;;11.93;;
56537;SDS011;42435;53.292;6.000;2024-03-06T02:10:46;22.45;;;11.98;;
56537;SDS011;42435;53.292;6.000;2024-03-06T02:13:23;23.77;;;12.43;;
56537;SDS011;42435;53.292;6.000;2024-03-06T02:15:59;22.55;;;11.82;;
56537;SDS011;42435;53.292;6.000;2024-03-06T02:18:29;20.08;;;11.05;;
56537;SDS011;42435;53.292;6.000;2024-03-06T02:20:56;21.75;;;11.35;;
56537;SDS011;42435;53.292;6.000;2024-03-06T02:23:25;23.70;;;13.43;;
56537;SDS011;42435;53.292;6.000;2024-03-06T02:25:52;22.73;;;12.77;;
56537;SDS011;42435;53.292;6.000;2024-03-06T02:28:22;26.23;;;12.55;;
56537;SDS011;42435;53.292;6.000;2024-03-06T02:30:52;20.25;;;11.63;;
56537;SDS011;42435;53.292;6.000;2024-03-06T02:33:22;23.33;;;10.90;;
56537;SDS011;42435;53.292;6.000;2024-03-06T02:35:57;20.98;;;11.75;;
56537;SDS011;42435;53.292;6.000;2024-03-06T02:38:24;19.00;;;10.68;;
56537;SDS011;42435;53.292;6.000;2024-03-06T02:40:54;22.02;;;12.25;;
56537;SDS011;42435;53.292;6.000;2024-03-06T02:43:28;25.27;;;13.15;;
56537;SDS011;42435;53.292;6.000;2024-03-06T02:45:58;21.15;;;11.43;;
56537;SDS011;42435;53.292;6.000;2024-03-06T02:48:25;21.23;;;12.50;;
56537;SDS011;42435;53.292;6.000;2024-03-06T02:50:54;22.38;;;12.55;;
56537;SDS011;42435;53.292;6.000;2024-03-06T02:53:28;23.70;;;11.93;;
56537;SDS011;42435;53.292;6.000;2024-03-06T02:55:58;23.60;;;11.32;;
56537;SDS011;42435;53.292;6.000;2024-03-06T02:58:27;22.05;;;13.63;;
56537;SDS011;42435;53.292;6.000;2024-03-06T03:00:59;24.67;;;12.90;;
56537;SDS011;42435;53.292;6.000;2024-03-06T03:03:26;26.48;;;13.13;;
56537;SDS011;42435;53.292;6.000;2024-03-06T03:05:52;26.33;;;13.85;;
56537;SDS011;42435;53.292;6.000;2024-03-06T03:08:18;26.23;;;13.38;;
56537;SDS011;42435;53.292;6.000;2024-03-06T03:10:51;28.73;;;14.40;;
56537;SDS011;42435;53.292;6.000;2024-03-06T03:13:17;23.20;;;13.23;;
56537;SDS011;42435;53.292;6.000;2024-03-06T03:18:25;23.38;;;13.38;;
56537;SDS011;42435;53.292;6.000;2024-03-06T03:21:11;25.75;;;14.23;;
56537;SDS011;42435;53.292;6.000;2024-03-06T03:23:41;22.63;;;13.70;;
56537;SDS011;42435;53.292;6.000;2024-03-06T03:26:29;26.48;;;14.55;;
56537;SDS011;42435;53.292;6.000;2024-03-06T03:29:09;23.45;;;14.27;;
56537;SDS011;42435;53.292;6.000;2024-03-06T03:31:38;26.88;;;14.43;;
56537;SDS011;42435;53.292;6.000;2024-03-06T03:34:13;29.52;;;14.85;;
56537;SDS011;42435;53.292;6.000;2024-03-06T03:36:43;29.33;;;15.32;;
56537;SDS011;42435;53.292;6.000;2024-03-06T03:39:10;28.33;;;14.45;;
56537;SDS011;42435;53.292;6.000;2024-03-06T03:41:47;24.75;;;13.77;;
56537;SDS011;42435;53.292;6.000;2024-03-06T03:44:17;25.92;;;14.00;;
56537;SDS011;42435;53.292;6.000;2024-03-06T03:46:45;29.73;;;14.52;;
56537;SDS011;42435;53.292;6.000;2024-03-06T03:49:13;24.63;;;13.55;;
56537;SDS011;42435;53.292;6.000;2024-03-06T03:51:42;25.10;;;14.98;;
56537;SDS011;42435;53.292;6.000;2024-03-06T03:54:18;26.42;;;13.73;;
56537;SDS011;42435;53.292;6.000;2024-03-06T03:56:48;25.85;;;13.98;;
56537;SDS011;42435;53.292;6.000;2024-03-06T03:59:14;29.30;;;15.23;;
56537;SDS011;42435;53.292;6.000;2024-03-06T04:01:44;25.98;;;14.82;;
56537;SDS011;42435;53.292;6.000;2024-03-06T04:04:35;23.95;;;13.95;;
56537;SDS011;42435;53.292;6.000;2024-03-06T04:07:10;26.48;;;15.13;;
56537;SDS011;42435;53.292;6.000;2024-03-06T04:09:42;25.50;;;13.43;;
56537;SDS011;42435;53.292;6.000;2024-03-06T04:12:10;26.50;;;14.20;;
56537;SDS011;42435;53.292;6.000;2024-03-06T04:17:13;25.77;;;14.15;;
56537;SDS011;42435;53.292;6.000;2024-03-06T04:19:42;26.08;;;13.80;;
56537;SDS011;42435;53.292;6.000;2024-03-06T04:22:13;26.02;;;13.60;;
56537;SDS011;42435;53.292;6.000;2024-03-06T04:24:50;25.95;;;13.88;;
56537;SDS011;42435;53.292;6.000;2024-03-06T04:27:29;27.67;;;15.65;;
56537;SDS011;42435;53.292;6.000;2024-03-06T04:29:58;27.30;;;14.57;;
56537;SDS011;42435;53.292;6.000;2024-03-06T04:32:35;29.58;;;16.17;;
56537;SDS011;42435;53.292;6.000;2024-03-06T04:35:10;26.15;;;14.82;;
56537;SDS011;42435;53.292;6.000;2024-03-06T04:37:37;25.08;;;14.38;;
56537;SDS011;42435;53.292;6.000;2024-03-06T04:40:07;30.27;;;14.85;;
56537;SDS011;42435;53.292;6.000;2024-03-06T04:42:35;28.75;;;14.60;;
56537;SDS011;42435;53.292;6.000;2024-03-06T04:45:17;31.60;;;15.88;;
56537;SDS011;42435;53.292;6.000;2024-03-06T04:48:10;24.80;;;14.02;;
56537;SDS011;42435;53.292;6.000;2024-03-06T04:50:53;29.33;;;15.63;;
56537;SDS011;42435;53.292;6.000;2024-03-06T04:53:25;27.45;;;14.20;;
56537;SDS011;42435;53.292;6.000;2024-03-06T04:56:14;27.80;;;14.27;;
56537;SDS011;42435;53.292;6.000;2024-03-06T04:58:59;30.73;;;15.50;;
56537;SDS011;42435;53.292;6.000;2024-03-06T05:01:58;24.45;;;14.45;;
56537;SDS011;42435;53.292;6.000;2024-03-06T05:04:53;28.33;;;14.73;;
56537;SDS011;42435;53.292;6.000;2024-03-06T05:07:54;23.10;;;14.23;;
56537;SDS011;42435;53.292;6.000;2024-03-06T05:10:42;27.33;;;15.52;;
56537;SDS011;42435;53.292;6.000;2024-03-06T05:16:06;25.27;;;14.55;;
56537;SDS011;42435;53.292;6.000;2024-03-06T05:19:07;27.52;;;13.80;;
56537;SDS011;42435;53.292;6.000;2024-03-06T05:21:36;33.45;;;16.10;;
56537;SDS011;42435;53.292;6.000;2024-03-06T05:24:09;27.52;;;15.65;;
56537;SDS011;42435;53.292;6.000;2024-03-06T05:26:44;25.58;;;15.18;;
56537;SDS011;42435;53.292;6.000;2024-03-06T05:29:21;32.28;;;15.75;;
56537;SDS011;42435;53.292;6.000;2024-03-06T05:31:52;30.10;;;16.20;;
56537;SDS011;42435;53.292;6.000;2024-03-06T05:34:28;29.50;;;15.20;;
56537;SDS011;42435;53.292;6.000;2024-03-06T05:37:02;30.60;;;16.02;;
56537;SDS011;42435;53.292;6.000;2024-03-06T05:39:33;32.55;;;16.20;;
56537;SDS011;42435;53.292;6.000;2024-03-06T05:42:19;29.05;;;16.10;;
56537;SDS011;42435;53.292;6.000;2024-03-06T05:44:47;29.83;;;15.82;;
56537;SDS011;42435;53.292;6.000;2024-03-06T05:47:36;32.17;;;17.83;;
56537;SDS011;42435;53.292;6.000;2024-03-06T05:50:20;31.88;;;16.50;;
56537;SDS011;42435;53.292;6.000;2024-03-06T05:52:57;32.45;;;16.20;;
56537;SDS011;42435;53.292;6.000;2024-03-06T05:55:42;30.95;;;16.25;;
56537;SDS011;42435;53.292;6.000;2024-03-06T05:58:12;26.70;;;14.48;;
56537;SDS011;42435;53.292;6.000;2024-03-06T06:00:48;38.50;;;18.98;;
56537;SDS011;42435;53.292;6.000;2024-03-06T06:03:25;26.50;;;15.13;;
56537;SDS011;42435;53.292;6.000;2024-03-06T06:06:15;30.63;;;17.15;;
56537;SDS011;42435;53.292;6.000;2024-03-06T06:08:48;28.02;;;15.75;;
56537;SDS011;42435;53.292;6.000;2024-03-06T06:11:34;36.65;;;17.40;;
56537;SDS011;42435;53.292;6.000;2024-03-06T06:14:15;31.83;;;17.08;;
56537;SDS011;42435;53.292;6.000;2024-03-06T06:17:02;29.60;;;16.55;;
56537;SDS011;42435;53.292;6.000;2024-03-06T06:19:34;29.75;;;16.65;;
56537;SDS011;42435;53.292;6.000;2024-03-06T06:22:03;32.38;;;17.48;;
56537;SDS011;42435;53.292;6.000;2024-03-06T06:24:31;29.65;;;16.17;;
56537;SDS011;42435;53.292;6.000;2024-03-06T06:27:25;28.65;;;15.30;;
56537;SDS011;42435;53.292;6.000;2024-03-06T06:30:10;22.88;;;13.05;;
56537;SDS011;42435;53.292;6.000;2024-03-06T06:32:53;27.88;;;16.27;;
56537;SDS011;42435;53.292;6.000;2024-03-06T06:35:27;29.25;;;16.25;;
56537;SDS011;42435;53.292;6.000;2024-03-06T06:38:01;30.33;;;15.77;;
56537;SDS011;42435;53.292;6.000;2024-03-06T06:40:36;30.73;;;16.30;;
56537;SDS011;42435;53.292;6.000;2024-03-06T06:43:13;28.25;;;15.98;;
56537;SDS011;42435;53.292;6.000;2024-03-06T06:45:58;29.20;;;15.82;;
56537;SDS011;42435;53.292;6.000;2024-03-06T06:48:27;30.27;;;16.60;;
56537;SDS011;42435;53.292;6.000;2024-03-06T06:51:07;31.90;;;16.70;;
56537;SDS011;42435;53.292;6.000;2024-03-06T06:53:37;30.48;;;17.85;;
56537;SDS011;42435;53.292;6.000;2024-03-06T06:56:10;33.25;;;15.95;;
56537;SDS011;42435;53.292;6.000;2024-03-06T06:58:37;32.08;;;17.45;;
56537;SDS011;42435;53.292;6.000;2024-03-06T07:01:09;30.67;;;16.67;;
56537;SDS011;42435;53.292;6.000;2024-03-06T07:03:36;28.98;;;16.77;;
56537;SDS011;42435;53.292;6.000;2024-03-06T07:06:03;29.70;;;16.60;;
56537;SDS011;42435;53.292;6.000;2024-03-06T07:08:35;34.28;;;16.63;;
56537;SDS011;42435;53.292;6.000;2024-03-06T07:11:02;31.02;;;15.75;;
56537;SDS011;42435;53.292;6.000;2024-03-06T07:13:30;27.98;;;16.25;;
56537;SDS011;42435;53.292;6.000;2024-03-06T07:16:07;29.42;;;17.05;;
56537;SDS011;42435;53.292;6.000;2024-03-06T07:18:43;31.35;;;17.50;;
56537;SDS011;42435;53.292;6.000;2024-03-06T07:21:33;40.38;;;18.23;;
56537;SDS011;42435;53.292;6.000;2024-03-06T07:24:01;30.98;;;16.75;;
56537;SDS011;42435;53.292;6.000;2024-03-06T07:26:39;34.88;;;18.60;;
56537;SDS011;42435;53.292;6.000;2024-03-06T07:29:10;32.72;;;17.55;;
56537;SDS011;42435;53.292;6.000;2024-03-06T07:31:41;34.70;;;17.83;;
56537;SDS011;42435;53.292;6.000;2024-03-06T07:34:08;38.63;;;18.42;;
56537;SDS011;42435;53.292;6.000;2024-03-06T07:36:38;31.50;;;17.13;;
56537;SDS011;42435;53.292;6.000;2024-03-06T07:39:18;34.70;;;18.77;;
56537;SDS011;42435;53.292;6.000;2024-03-06T07:42:50;31.20;;;17.17;;
56537;SDS011;42435;53.292;6.000;2024-03-06T07:45:41;36.85;;;18.98;;
56537;SDS011;42435;53.292;6.000;2024-03-06T07:48:57;31.90;;;17.02;;
56537;SDS011;42435;53.292;6.000;2024-03-06T07:52:59;34.30;;;16.70;;
56537;SDS011;42435;53.292;6.000;2024-03-06T07:55:30;34.55;;;18.17;;
56537;SDS011;42435;53.292;6.000;2024-03-06T07:58:08;32.15;;;16.65;;
56537;SDS011;42435;53.292;6.000;2024-03-06T08:00:49;35.45;;;16.20;;
56537;SDS011;42435;53.292;6.000;2024-03-06T08:03:17;34.30;;;17.55;;
56537;SDS011;42435;53.292;6.000;2024-03-06T08:06:01;32.70;;;16.95;;
56537;SDS011;42435;53.292;6.000;2024-03-06T08:08:41;34.40;;;17.60;;
56537;SDS011;42435;53.292;6.000;2024-03-06T08:11:21;33.95;;;17.67;;
56537;SDS011;42435;53.292;6.000;2024-03-06T08:14:00;41.78;;;19.80;;
56537;SDS011;42435;53.292;6.000;2024-03-06T08:16:47;40.08;;;21.35;;
56537;SDS011;42435;53.292;6.000;2024-03-06T08:19:29;35.03;;;18.88;;
56537;SDS011;42435;53.292;6.000;2024-03-06T08:22:09;35.70;;;20.52;;
56537;SDS011;42435;53.292;6.000;2024-03-06T08:24:43;34.40;;;18.27;;
56537;SDS011;42435;53.292;6.000;2024-03-06T08:27:09;37.67;;;19.85;;
56537;SDS011;42435;53.292;6.000;2024-03-06T08:29:38;34.20;;;17.30;;
56537;SDS011;42435;53.292;6.000;2024-03-06T08:32:08;33.03;;;17.20;;
56537;SDS011;42435;53.292;6.000;2024-03-06T08:34:39;37.00;;;17.73;;
56537;SDS011;42435;53.292;6.000;2024-03-06T08:37:06;31.98;;;18.02;;
56537;SDS011;42435;53.292;6.000;2024-03-06T08:39:39;35.30;;;19.80;;
56537;SDS011;42435;53.292;6.000;2024-03-06T08:42:05;38.78;;;20.17;;
56537;SDS011;42435;53.292;6.000;2024-03-06T08:44:51;36.95;;;19.15;;
56537;SDS011;42435;53.292;6.000;2024-03-06T08:47:23;35.83;;;17.92;;
56537;SDS011;42435;53.292;6.000;2024-03-06T08:50:03;34.22;;;17.55;;
56537;SDS011;42435;53.292;6.000;2024-03-06T08:52:46;32.53;;;18.15;;
56537;SDS011;42435;53.292;6.000;2024-03-06T08:55:17;33.03;;;17.25;;
56537;SDS011;42435;53.292;6.000;2024-03-06T08:57:49;30.20;;;17.30;;
56537;SDS011;42435;53.292;6.000;2024-03-06T09:00:17;30.98;;;16.27;;
56537;SDS011;42435;53.292;6.000;2024-03-06T09:02:46;32.97;;;17.40;;
56537;SDS011;42435;53.292;6.000;2024-03-06T09:05:15;29.27;;;17.77;;
56537;SDS011;42435;53.292;6.000;2024-03-06T09:07:48;35.05;;;18.13;;
56537;SDS011;42435;53.292;6.000;2024-03-06T09:10:15;32.08;;;16.60;;
56537;SDS011;42435;53.292;6.000;2024-03-06T09:12:42;30.95;;;17.33;;
56537;SDS011;42435;53.292;6.000;2024-03-06T09:15:21;35.05;;;18.92;;
56537;SDS011;42435;53.292;6.000;2024-03-06T09:17:47;36.10;;;18.20;;
56537;SDS011;42435;53.292;6.000;2024-03-06T09:20:20;31.75;;;17.17;;
56537;SDS011;42435;53.292;6.000;2024-03-06T09:22:49;32.53;;;16.55;;
56537;SDS011;42435;53.292;6.000;2024-03-06T09:25:19;32.95;;;16.75;;
56537;SDS011;42435;53.292;6.000;2024-03-06T09:27:46;32.83;;;16.73;;
56537;SDS011;42435;53.292;6.000;2024-03-06T09:30:28;32.42;;;17.35;;
56537;SDS011;42435;53.292;6.000;2024-03-06T09:32:54;35.55;;;18.38;;
56537;SDS011;42435;53.292;6.000;2024-03-06T09:35:32;33.90;;;18.38;;
56537;SDS011;42435;53.292;6.000;2024-03-06T09:38:25;35.00;;;18.83;;
56537;SDS011;42435;53.292;6.000;2024-03-06T09:41:06;28.80;;;16.15;;
56537;SDS011;42435;53.292;6.000;2024-03-06T09:43:44;33.53;;;17.40;;
56537;SDS011;42435;53.292;6.000;2024-03-06T09:46:33;32.42;;;16.98;;
56537;SDS011;42435;53.292;6.000;2024-03-06T09:49:59;31.45;;;17.00;;
56537;SDS011;42435;53.292;6.000;2024-03-06T09:53:21;31.08;;;16.63;;
56537;SDS011;42435;53.292;6.000;2024-03-06T09:56:37;34.58;;;18.10;;
56537;SDS011;42435;53.292;6.000;2024-03-06T09:59:36;29.17;;;15.48;;
56537;SDS011;42435;53.292;6.000;2024-03-06T10:02:37;33.38;;;17.67;;
56537;SDS011;42435;53.292;6.000;2024-03-06T10:05:50;32.40;;;17.08;;
56537;SDS011;42435;53.292;6.000;2024-03-06T10:08:24;30.15;;;16.83;;
56537;SDS011;42435;53.292;6.000;2024-03-06T10:11:15;33.08;;;17.88;;
56537;SDS011;42435;53.292;6.000;2024-03-06T10:16:57;28.70;;;16.60;;
56537;SDS011;42435;53.292;6.000;2024-03-06T10:22:53;33.05;;;17.65;;
56537;SDS011;42435;53.292;6.000;2024-03-06T10:25:28;35.05;;;18.38;;
56537;SDS011;42435;53.292;6.000;2024-03-06T10:28:10;35.42;;;18.67;;
56537;SDS011;42435;53.292;6.000;2024-03-06T10:31:02;35.40;;;18.15;;
56537;SDS011;42435;53.292;6.000;2024-03-06T10:33:39;38.05;;;20.60;;
56537;SDS011;42435;53.292;6.000;2024-03-06T10:36:12;37.38;;;20.20;;
56537;SDS011;42435;53.292;6.000;2024-03-06T10:38:40;39.70;;;19.60;;
56537;SDS011;42435;53.292;6.000;2024-03-06T10:41:18;39.10;;;18.98;;
56537;SDS011;42435;53.292;6.000;2024-03-06T10:44:15;39.40;;;20.48;;
56537;SDS011;42435;53.292;6.000;2024-03-06T10:46:58;40.65;;;20.83;;
56537;SDS011;42435;53.292;6.000;2024-03-06T10:49:35;41.33;;;21.60;;
56537;SDS011;42435;53.292;6.000;2024-03-06T10:55:13;38.42;;;18.45;;
56537;SDS011;42435;53.292;6.000;2024-03-06T10:58:19;37.63;;;20.20;;
56537;SDS011;42435;53.292;6.000;2024-03-06T11:00:55;40.15;;;21.60;;
56537;SDS011;42435;53.292;6.000;2024-03-06T11:03:37;41.28;;;21.42;;
56537;SDS011;42435;53.292;6.000;2024-03-06T11:06:19;38.50;;;19.85;;
56537;SDS011;42435;53.292;6.000;2024-03-06T11:08:48;38.58;;;20.45;;
56537;SDS011;42435;53.292;6.000;2024-03-06T11:11:22;42.72;;;22.10;;
56537;SDS011;42435;53.292;6.000;2024-03-06T11:13:54;43.47;;;21.05;;
56537;SDS011;42435;53.292;6.000;2024-03-06T11:16:55;39.42;;;20.75;;
56537;SDS011;42435;53.292;6.000;2024-03-06T11:28:35;41.25;;;20.13;;
56537;SDS011;42435;53.292;6.000;2024-03-06T11:31:15;41.03;;;20.42;;
56537;SDS011;42435;53.292;6.000;2024-03-06T11:33:52;37.45;;;19.42;;
56537;SDS011;42435;53.292;6.000;2024-03-06T11:36:43;47.53;;;21.00;;
56537;SDS011;42435;53.292;6.000;2024-03-06T11:40:12;40.08;;;19.65;;
56537;SDS011;42435;53.292;6.000;2024-03-06T11:42:39;40.33;;;21.23;;
56537;SDS011;42435;53.292;6.000;2024-03-06T11:45:17;43.60;;;21.15;;
56537;SDS011;42435;53.292;6.000;2024-03-06T11:50:29;39.63;;;21.05;;
56537;SDS011;42435;53.292;6.000;2024-03-06T11:52:58;43.42;;;22.48;;
56537;SDS011;42435;53.292;6.000;2024-03-06T11:58:00;36.53;;;19.95;;
56537;SDS011;42435;53.292;6.000;2024-03-06T12:00:31;41.45;;;21.42;;
56537;SDS011;42435;53.292;6.000;2024-03-06T12:03:05;37.80;;;19.75;;
56537;SDS011;42435;53.292;6.000;2024-03-06T12:05:33;40.55;;;19.98;;
56537;SDS011;42435;53.292;6.000;2024-03-06T12:08:09;41.95;;;23.45;;
56537;SDS011;42435;53.292;6.000;2024-03-06T12:10:38;36.92;;;21.40;;
56537;SDS011;42435;53.292;6.000;2024-03-06T12:13:05;37.85;;;20.90;;
56537;SDS011;42435;53.292;6.000;2024-03-06T12:15:51;37.40;;;19.67;;
56537;SDS011;42435;53.292;6.000;2024-03-06T12:18:24;36.80;;;19.15;;
56537;SDS011;42435;53.292;6.000;2024-03-06T12:20:53;37.95;;;20.00;;
56537;SDS011;42435;53.292;6.000;2024-03-06T12:23:26;44.65;;;21.90;;
56537;SDS011;42435;53.292;6.000;2024-03-06T12:26:07;39.22;;;20.95;;
56537;SDS011;42435;53.292;6.000;2024-03-06T12:28:45;38.85;;;20.30;;
56537;SDS011;42435;53.292;6.000;2024-03-06T12:31:14;37.15;;;19.60;;
56537;SDS011;42435;53.292;6.000;2024-03-06T12:33:41;35.20;;;20.70;;
56537;SDS011;42435;53.292;6.000;2024-03-06T12:36:16;39.90;;;20.80;;
56537;SDS011;42435;53.292;6.000;2024-03-06T12:39:02;33.78;;;19.70;;
56537;SDS011;42435;53.292;6.000;2024-03-06T12:41:40;44.63;;;21.10;;
56537;SDS011;42435;53.292;6.000;2024-03-06T12:44:11;40.90;;;20.92;;
56537;SDS011;42435;53.292;6.000;2024-03-06T12:46:43;41.95;;;22.08;;
56537;SDS011;42435;53.292;6.000;2024-03-06T12:49:11;35.53;;;19.42;;
56537;SDS011;42435;53.292;6.000;2024-03-06T12:51:40;37.03;;;20.80;;
56537;SDS011;42435;53.292;6.000;2024-03-06T12:54:06;34.47;;;19.17;;
56537;SDS011;42435;53.292;6.000;2024-03-06T12:56:36;45.03;;;23.45;;
56537;SDS011;42435;53.292;6.000;2024-03-06T12:59:03;38.00;;;21.55;;
56537;SDS011;42435;53.292;6.000;2024-03-06T13:01:35;43.60;;;25.15;;
56537;SDS011;42435;53.292;6.000;2024-03-06T13:04:06;35.83;;;20.58;;
56537;SDS011;42435;53.292;6.000;2024-03-06T13:06:37;44.65;;;23.33;;
56537;SDS011;42435;53.292;6.000;2024-03-06T13:09:11;77.00;;;36.75;;
56537;SDS011;42435;53.292;6.000;2024-03-06T13:11:59;42.53;;;22.88;;
56537;SDS011;42435;53.292;6.000;2024-03-06T13:14:29;38.00;;;22.48;;
56537;SDS011;42435;53.292;6.000;2024-03-06T13:17:14;36.42;;;22.35;;
56537;SDS011;42435;53.292;6.000;2024-03-06T13:19:46;43.45;;;23.20;;
56537;SDS011;42435;53.292;6.000;2024-03-06T13:22:19;43.20;;;24.20;;
56537;SDS011;42435;53.292;6.000;2024-03-06T13:24:56;41.90;;;23.48;;
56537;SDS011;42435;53.292;6.000;2024-03-06T13:27:33;39.33;;;22.02;;
56537;SDS011;42435;53.292;6.000;2024-03-06T13:29:59;43.20;;;22.83;;
56537;SDS011;42435;53.292;6.000;2024-03-06T13:32:34;42.05;;;22.50;;
56537;SDS011;42435;53.292;6.000;2024-03-06T13:35:04;42.67;;;22.48;;
56537;SDS011;42435;53.292;6.000;2024-03-06T13:37:41;39.03;;;22.45;;
56537;SDS011;42435;53.292;6.000;2024-03-06T13:40:12;39.65;;;22.83;;
56537;SDS011;42435;53.292;6.000;2024-03-06T13:42:45;46.58;;;24.35;;
56537;SDS011;42435;53.292;6.000;2024-03-06T13:45:17;40.10;;;23.90;;
56537;SDS011;42435;53.292;6.000;2024-03-06T13:47:48;43.67;;;23.35;;
56537;SDS011;42435;53.292;6.000;2024-03-06T13:50:26;38.22;;;22.80;;
56537;SDS011;42435;53.292;6.000;2024-03-06T13:52:55;45.90;;;24.75;;
56537;SDS011;42435;53.292;6.000;2024-03-06T13:56:28;37.15;;;21.30;;
56537;SDS011;42435;53.292;6.000;2024-03-06T13:59:57;39.85;;;22.02;;
56537;SDS011;42435;53.292;6.000;2024-03-06T14:02:23;35.53;;;21.95;;
56537;SDS011;42435;53.292;6.000;2024-03-06T14:05:23;38.42;;;22.02;;
56537;SDS011;42435;53.292;6.000;2024-03-06T14:08:18;38.03;;;21.48;;
56537;SDS011;42435;53.292;6.000;2024-03-06T14:11:15;44.42;;;23.95;;
56537;SDS011;42435;53.292;6.000;2024-03-06T14:13:59;36.00;;;20.70;;
56537;SDS011;42435;53.292;6.000;2024-03-06T14:16:30;38.70;;;21.45;;
56537;SDS011;42435;53.292;6.000;2024-03-06T14:19:09;37.63;;;22.13;;
56537;SDS011;42435;53.292;6.000;2024-03-06T14:21:43;39.25;;;22.77;;
56537;SDS011;42435;53.292;6.000;2024-03-06T14:24:25;41.38;;;24.20;;
56537;SDS011;42435;53.292;6.000;2024-03-06T14:26:57;37.55;;;21.83;;
56537;SDS011;42435;53.292;6.000;2024-03-06T14:29:25;45.90;;;25.27;;
56537;SDS011;42435;53.292;6.000;2024-03-06T14:31:57;43.85;;;24.88;;
56537;SDS011;42435;53.292;6.000;2024-03-06T14:34:30;45.80;;;26.77;;
56537;SDS011;42435;53.292;6.000;2024-03-06T14:37:44;42.25;;;23.17;;
56537;SDS011;42435;53.292;6.000;2024-03-06T14:40:33;35.92;;;21.13;;
56537;SDS011;42435;53.292;6.000;2024-03-06T14:43:22;39.90;;;22.98;;
56537;SDS011;42435;53.292;6.000;2024-03-06T14:46:09;40.88;;;26.08;;
56537;SDS011;42435;53.292;6.000;2024-03-06T14:49:03;39.97;;;23.83;;
56537;SDS011;42435;53.292;6.000;2024-03-06T14:51:41;42.33;;;23.17;;
56537;SDS011;42435;53.292;6.000;2024-03-06T14:54:12;55.80;;;35.22;;
56537;SDS011;42435;53.292;6.000;2024-03-06T14:56:46;46.17;;;29.63;;
56537;SDS011;42435;53.292;6.000;2024-03-06T14:59:17;43.72;;;25.08;;
56537;SDS011;42435;53.292;6.000;2024-03-06T15:01:57;54.90;;;35.03;;
56537;SDS011;42435;53.292;6.000;2024-03-06T15:04:45;51.63;;;31.60;;
56537;SDS011;42435;53.292;6.000;2024-03-06T15:07:19;44.95;;;27.75;;
56537;SDS011;42435;53.292;6.000;2024-03-06T15:09:46;41.85;;;25.15;;
56537;SDS011;42435;53.292;6.000;2024-03-06T15:12:14;40.75;;;23.63;;
56537;SDS011;42435;53.292;6.000;2024-03-06T15:14:52;43.83;;;24.20;;
56537;SDS011;42435;53.292;6.000;2024-03-06T15:17:22;43.45;;;24.40;;
56537;SDS011;42435;53.292;6.000;2024-03-06T15:20:06;41.45;;;24.33;;
56537;SDS011;42435;53.292;6.000;2024-03-06T15:22:42;40.50;;;23.73;;
56537;SDS011;42435;53.292;6.000;2024-03-06T15:25:11;40.97;;;23.27;;
56537;SDS011;42435;53.292;6.000;2024-03-06T15:27:44;45.60;;;26.88;;
56537;SDS011;42435;53.292;6.000;2024-03-06T15:30:16;47.30;;;27.70;;
56537;SDS011;42435;53.292;6.000;2024-03-06T15:33:08;40.00;;;25.02;;
56537;SDS011;42435;53.292;6.000;2024-03-06T15:35:38;42.20;;;25.85;;
56537;SDS011;42435;53.292;6.000;2024-03-06T15:38:11;44.65;;;24.52;;
56537;SDS011;42435;53.292;6.000;2024-03-06T15:40:41;44.22;;;25.85;;
56537;SDS011;42435;53.292;6.000;2024-03-06T15:43:27;43.92;;;24.98;;
56537;SDS011;42435;53.292;6.000;2024-03-06T15:45:55;45.28;;;26.10;;
56537;SDS011;42435;53.292;6.000;2024-03-06T15:48:32;46.60;;;26.48;;
56537;SDS011;42435;53.292;6.000;2024-03-06T15:51:10;40.08;;;23.52;;
56537;SDS011;42435;53.292;6.000;2024-03-06T15:53:54;41.35;;;25.80;;